Prince George, Virginia
Current Conditions -  °F | °C
As of 4:35 PM on Wednesday 26 Nov 2014 (Local Time) from KPTB Reporting Station
Light Rain Light Rain  
Wind Chill: 31°   Ceiling: 800
Heat Index: 38°   Visibility: 5mi
Dew Point: 37°   Wind: 10mph
Humidity: 95%   Direction: 320°NW
Pressure: 29.95"   Gusts: NA
Location:  37.22°N, 77.29°W
Report Text: KPTB 262135Z AUTO 32009KT 5SM -RA OVC008 04/03 A2995 RMK AO2 P0001 T00350028
Loading
Personal Weather Stations






























Interactive Weather Map New forecast layout! Learn more

10-Day Weather Forecast

Advertisements
Track Severe Weather on mobile